createdAt,value
2022-09-04T00:02:15.405Z,100380.00
2022-09-04T00:04:52.764Z,100381.00
2022-09-04T00:07:28.679Z,100385.00
2022-09-04T00:10:11.583Z,100390.00
2022-09-04T00:12:47.103Z,100391.00
2022-09-04T00:15:21.340Z,100385.00
2022-09-04T00:17:59.707Z,100388.00
2022-09-04T00:20:37.503Z,100384.00
2022-09-04T00:23:15.027Z,100388.00
2022-09-04T00:25:52.896Z,100389.00
2022-09-04T00:28:32.304Z,100390.00
2022-09-04T00:31:09.938Z,100383.00
2022-09-04T00:33:47.359Z,100389.00
2022-09-04T00:36:19.554Z,100394.00
2022-09-04T00:38:55.108Z,100393.00
2022-09-04T00:41:31.404Z,100394.00
2022-09-04T00:44:32.161Z,100394.00
2022-09-04T00:47:48.807Z,100394.00
2022-09-04T00:50:38.444Z,100394.00
2022-09-04T00:53:34.331Z,100397.00
2022-09-04T00:56:39.372Z,100397.00
2022-09-04T00:59:22.458Z,100392.00
2022-09-04T01:02:10.657Z,100408.00
2022-09-04T01:04:59.764Z,100394.00
2022-09-04T01:07:53.714Z,100408.00
2022-09-04T01:10:42.380Z,100413.00
2022-09-04T01:13:19.735Z,100405.00
2022-09-04T01:15:54.191Z,100405.00
2022-09-04T01:18:31.855Z,100408.00
2022-09-04T01:21:43.255Z,100399.00
2022-09-04T01:24:45.652Z,100407.00
2022-09-04T01:27:22.587Z,100414.00
2022-09-04T01:30:00.628Z,100419.00
2022-09-04T01:32:43.570Z,100417.00
2022-09-04T01:35:22.771Z,100416.00
2022-09-04T01:38:02.994Z,100421.00
2022-09-04T01:40:44.250Z,100417.00
2022-09-04T01:43:17.805Z,100418.00
2022-09-04T01:46:14.401Z,100425.00
2022-09-04T01:48:51.955Z,100420.00
2022-09-04T01:51:29.120Z,100423.00
2022-09-04T01:54:10.045Z,100419.00
2022-09-04T01:56:45.612Z,100419.00
2022-09-04T01:59:24.741Z,100429.00
2022-09-04T02:01:59.265Z,100430.00
2022-09-04T02:04:35.985Z,100440.00
2022-09-04T02:07:11.273Z,100441.00
2022-09-04T02:09:53.802Z,100442.00
2022-09-04T02:12:31.478Z,100447.00
2022-09-04T02:15:09.982Z,100445.00
2022-09-04T02:17:49.330Z,100438.00
2022-09-04T02:20:26.333Z,100445.00
2022-09-04T02:23:11.885Z,100449.00
2022-09-04T02:25:46.610Z,100447.00
2022-09-04T02:28:24.886Z,100441.00
2022-09-04T02:31:05.680Z,100441.00
2022-09-04T02:33:42.094Z,100443.00
2022-09-04T02:36:19.858Z,100448.00
2022-09-04T02:38:57.152Z,100449.00
2022-09-04T02:41:37.385Z,100449.00
2022-09-04T02:44:23.520Z,100457.00
2022-09-04T02:47:12.519Z,100457.00
2022-09-04T02:49:54.857Z,100451.00
2022-09-04T02:52:42.067Z,100457.00
2022-09-04T02:55:21.944Z,100455.00
2022-09-04T02:58:01.279Z,100456.00
2022-09-04T03:00:41.977Z,100451.00
2022-09-04T03:03:18.004Z,100453.00
2022-09-04T03:05:54.091Z,100461.00
2022-09-04T03:08:27.028Z,100459.00
2022-09-04T03:11:03.223Z,100461.00
2022-09-04T03:13:37.526Z,100459.00
2022-09-04T03:16:15.709Z,100466.00
2022-09-04T03:19:08.537Z,100462.00
2022-09-04T03:21:45.039Z,100460.00
2022-09-04T03:24:19.182Z,100460.00
2022-09-04T03:26:52.832Z,100461.00
2022-09-04T03:29:31.764Z,100466.00
2022-09-04T03:32:16.479Z,100458.00
2022-09-04T03:34:53.356Z,100463.00
2022-09-04T03:37:51.901Z,100463.00
2022-09-04T03:40:34.954Z,100469.00
2022-09-04T03:43:17.758Z,100467.00
2022-09-04T03:45:54.473Z,100474.00
2022-09-04T03:48:41.417Z,100463.00
2022-09-04T03:51:22.774Z,100460.00
2022-09-04T03:54:02.022Z,100466.00
2022-09-04T03:56:56.617Z,100463.00
2022-09-04T03:59:43.372Z,100469.00
2022-09-04T04:02:18.878Z,100470.00
2022-09-04T04:05:27.663Z,100474.00
2022-09-04T04:08:14.455Z,100480.00
2022-09-04T04:10:57.052Z,100483.00
2022-09-04T04:13:43.709Z,100478.00
2022-09-04T04:16:31.380Z,100477.00
2022-09-04T04:19:32.153Z,100479.00
2022-09-04T04:22:19.043Z,100484.00
2022-09-04T04:25:07.035Z,100484.00
2022-09-04T04:27:49.819Z,100487.00
2022-09-04T04:30:20.549Z,100482.00
2022-09-04T04:33:16.557Z,100484.00
2022-09-04T04:35:58.009Z,100487.00
2022-09-04T04:38:40.618Z,100493.00
2022-09-04T04:41:30.224Z,100489.00
2022-09-04T04:44:13.163Z,100498.00
2022-09-04T04:46:54.932Z,100488.00
2022-09-04T04:49:42.657Z,100495.00
2022-09-04T04:52:37.155Z,100492.00
2022-09-04T04:55:17.619Z,100504.00
2022-09-04T04:58:16.679Z,100501.00
2022-09-04T05:00:52.104Z,100499.00
2022-09-04T05:03:34.872Z,100495.00
2022-09-04T05:06:14.481Z,100507.00
2022-09-04T05:08:57.838Z,100514.00
2022-09-04T05:11:40.973Z,100509.00
2022-09-04T05:14:35.830Z,100514.00
2022-09-04T05:17:32.182Z,100533.00
2022-09-04T05:20:37.337Z,100538.00
2022-09-04T05:23:39.798Z,100538.00
2022-09-04T05:26:18.844Z,100537.00
2022-09-04T05:28:57.432Z,100551.00
2022-09-04T05:31:38.749Z,100555.00
2022-09-04T05:34:14.170Z,100556.00
2022-09-04T05:36:56.031Z,100554.00
2022-09-04T05:39:33.876Z,100565.00
2022-09-04T05:42:24.671Z,100571.00
2022-09-04T05:45:00.017Z,100577.00
2022-09-04T05:47:43.363Z,100579.00
2022-09-04T05:50:47.036Z,100591.00
2022-09-04T05:53:30.232Z,100598.00
2022-09-04T05:56:32.231Z,100609.00
2022-09-04T05:59:17.532Z,100606.00
2022-09-04T06:02:19.105Z,100611.00
2022-09-04T06:05:21.233Z,100621.00
2022-09-04T06:08:02.266Z,100625.00
2022-09-04T06:10:41.284Z,100621.00
2022-09-04T06:13:40.272Z,100627.00
2022-09-04T06:16:33.402Z,100634.00
2022-09-04T06:19:16.021Z,100635.00
2022-09-04T06:22:42.914Z,100640.00
2022-09-04T06:25:35.500Z,100648.00
2022-09-04T06:28:31.529Z,100645.00
2022-09-04T06:31:10.632Z,100650.00
2022-09-04T06:34:00.478Z,100648.00
2022-09-04T06:36:52.161Z,100647.00
2022-09-04T06:39:57.330Z,100646.00
2022-09-04T06:42:37.833Z,100654.00
2022-09-04T06:45:19.488Z,100643.00
2022-09-04T06:48:03.129Z,100650.00
2022-09-04T06:50:39.720Z,100645.00
2022-09-04T06:53:19.804Z,100654.00
2022-09-04T06:55:59.513Z,100648.00
2022-09-04T06:59:02.100Z,100655.00
2022-09-04T07:01:42.574Z,100654.00
2022-09-04T07:04:24.889Z,100656.00
2022-09-04T07:07:04.449Z,100661.00
2022-09-04T07:09:38.466Z,100663.00
2022-09-04T07:12:34.526Z,100667.00
2022-09-04T07:15:40.833Z,100676.00
2022-09-04T07:18:23.999Z,100670.00
2022-09-04T07:21:03.267Z,100673.00
2022-09-04T07:23:41.527Z,100671.00
2022-09-04T07:26:20.521Z,100666.00
2022-09-04T07:29:25.780Z,100660.00
2022-09-04T07:32:02.535Z,100659.00
2022-09-04T07:34:40.477Z,100657.00
2022-09-04T07:37:22.758Z,100662.00
2022-09-04T07:40:01.224Z,100658.00
2022-09-04T07:42:36.027Z,100662.00
2022-09-04T07:45:08.859Z,100666.00
2022-09-04T07:47:44.527Z,100665.00
2022-09-04T07:50:18.072Z,100675.00
2022-09-04T07:53:08.283Z,100668.00
2022-09-04T07:55:41.815Z,100682.00
2022-09-04T07:58:44.267Z,100681.00
2022-09-04T08:01:43.338Z,100692.00
2022-09-04T08:04:44.060Z,100689.00
2022-09-04T08:07:21.424Z,100691.00
2022-09-04T08:10:12.390Z,100694.00
2022-09-04T08:12:59.420Z,100695.00
2022-09-04T08:15:43.200Z,100706.00
2022-09-04T08:18:35.475Z,100712.00
2022-09-04T08:21:18.736Z,100710.00
2022-09-04T08:24:14.934Z,100713.00
2022-09-04T08:26:56.281Z,100717.00
2022-09-04T08:29:42.558Z,100716.00
2022-09-04T08:32:22.987Z,100715.00
2022-09-04T08:35:10.834Z,100714.00
2022-09-04T08:37:57.392Z,100716.00
2022-09-04T08:40:59.743Z,100710.00
2022-09-04T08:43:39.805Z,100716.00
2022-09-04T08:47:07.541Z,100708.00
2022-09-04T08:50:14.085Z,100714.00
2022-09-04T08:53:13.779Z,100716.00
2022-09-04T08:56:10.148Z,100722.00
2022-09-04T08:59:08.689Z,100721.00
2022-09-04T09:02:13.646Z,100713.00
2022-09-04T09:05:18.633Z,100720.00
2022-09-04T09:08:31.955Z,100715.00
2022-09-04T09:11:28.947Z,100712.00
2022-09-04T09:14:31.840Z,100703.00
2022-09-04T09:17:12.511Z,100713.00
2022-09-04T09:19:51.728Z,100716.00
2022-09-04T09:22:47.497Z,100718.00
2022-09-04T09:25:21.597Z,100718.00
2022-09-04T09:28:29.504Z,100715.00
2022-09-04T09:31:38.253Z,100727.00
2022-09-04T09:34:33.729Z,100722.00
2022-09-04T09:37:47.815Z,100728.00
2022-09-04T09:40:44.081Z,100723.00
2022-09-04T09:43:42.034Z,100726.00
2022-09-04T09:46:33.611Z,100722.00
2022-09-04T09:49:25.552Z,100726.00
2022-09-04T09:52:38.233Z,100717.00
2022-09-04T09:55:38.910Z,100717.00
2022-09-04T09:58:55.524Z,100711.00
2022-09-04T10:01:52.704Z,100707.00
2022-09-04T10:04:47.904Z,100707.00
2022-09-04T10:07:55.963Z,100708.00
2022-09-04T10:11:06.232Z,100713.00
2022-09-04T10:14:04.294Z,100705.00
2022-09-04T10:17:06.972Z,100710.00
2022-09-04T10:20:16.380Z,100706.00
2022-09-04T10:23:21.881Z,100700.00
2022-09-04T10:26:08.227Z,100707.00
2022-09-04T10:29:12.392Z,100712.00
2022-09-04T10:32:05.894Z,100704.00
2022-09-04T10:35:01.456Z,100710.00
2022-09-04T10:37:54.276Z,100708.00
2022-09-04T10:40:43.290Z,100698.00
2022-09-04T10:43:32.139Z,100697.00
2022-09-04T10:46:08.480Z,100707.00
2022-09-04T10:48:55.349Z,100706.00
2022-09-04T10:51:39.890Z,100708.00
2022-09-04T10:54:26.996Z,100713.00
2022-09-04T10:57:11.398Z,100718.00
2022-09-04T11:00:06.986Z,100723.00
2022-09-04T11:03:16.835Z,100724.00
2022-09-04T11:06:32.860Z,100720.00
2022-09-04T11:09:21.438Z,100718.00
2022-09-04T11:12:18.648Z,100714.00
2022-09-04T11:15:27.608Z,100717.00
2022-09-04T11:18:41.249Z,100713.00
2022-09-04T11:21:53.876Z,100713.00
2022-09-04T11:25:22.062Z,100720.00
2022-09-04T11:28:59.228Z,100726.00
2022-09-04T11:31:41.416Z,100720.00
2022-09-04T11:34:53.083Z,100721.00
2022-09-04T11:38:04.043Z,100717.00
2022-09-04T11:41:31.090Z,100717.00
2022-09-04T11:44:50.656Z,100716.00
2022-09-04T11:47:57.910Z,100721.00
2022-09-04T11:50:44.123Z,100728.00
2022-09-04T11:53:45.383Z,100724.00
2022-09-04T11:56:39.333Z,100727.00
2022-09-04T11:59:33.564Z,100729.00
2022-09-04T12:02:26.452Z,100733.00
2022-09-04T12:05:20.555Z,100734.00
2022-09-04T12:08:07.899Z,100739.00
2022-09-04T12:11:01.478Z,100743.00
2022-09-04T12:13:48.043Z,100736.00
2022-09-04T12:16:59.520Z,100727.00
2022-09-04T12:20:01.451Z,100733.00
2022-09-04T12:22:51.833Z,100728.00
2022-09-04T12:26:23.793Z,100727.00
2022-09-04T12:29:43.037Z,100733.00
2022-09-04T12:32:45.377Z,100718.00
2022-09-04T12:35:43.970Z,100726.00
2022-09-04T12:38:48.835Z,100731.00
2022-09-04T12:41:31.603Z,100732.00
2022-09-04T12:44:21.315Z,100728.00
2022-09-04T12:48:15.577Z,100734.00
2022-09-04T12:50:52.671Z,100725.00
2022-09-04T12:53:55.316Z,100726.00
2022-09-04T12:59:49.310Z,100726.00
2022-09-04T13:02:29.436Z,100726.00
2022-09-04T13:05:08.571Z,100718.00
2022-09-04T13:07:51.057Z,100722.00
2022-09-04T13:10:32.696Z,100715.00
2022-09-04T13:13:17.424Z,100718.00
2022-09-04T13:15:58.272Z,100721.00
2022-09-04T13:18:54.631Z,100719.00
2022-09-04T13:22:02.305Z,100721.00
2022-09-04T13:24:51.497Z,100721.00
2022-09-04T13:27:49.206Z,100727.00
2022-09-04T13:30:41.652Z,100725.00
2022-09-04T13:33:54.125Z,100720.00
2022-09-04T13:36:42.373Z,100721.00
2022-09-04T13:39:51.559Z,100726.00
2022-09-04T13:42:52.425Z,100718.00
2022-09-04T13:46:21.608Z,100726.00
2022-09-04T13:48:58.297Z,100730.00
2022-09-04T13:51:55.014Z,100729.00
2022-09-04T13:55:07.179Z,100732.00
2022-09-04T14:05:37.638Z,100729.00
2022-09-04T14:08:10.438Z,100723.00
2022-09-04T14:11:15.900Z,100728.00
2022-09-04T14:14:13.254Z,100725.00
2022-09-04T14:16:43.978Z,100724.00
2022-09-04T14:25:51.133Z,100715.00
2022-09-04T14:28:28.148Z,100719.00
2022-09-04T14:31:10.446Z,100722.00
2022-09-04T14:33:47.831Z,100731.00
2022-09-04T14:36:29.913Z,100730.00
2022-09-04T14:39:16.520Z,100733.00
2022-09-04T14:42:22.398Z,100728.00
2022-09-04T14:45:13.318Z,100733.00
2022-09-04T14:47:47.421Z,100735.00
2022-09-04T14:50:19.178Z,100742.00
2022-09-04T14:52:51.917Z,100740.00
2022-09-04T14:55:50.582Z,100743.00
2022-09-04T14:58:40.217Z,100756.00
2022-09-04T15:01:19.030Z,100749.00
2022-09-04T15:03:54.103Z,100756.00
2022-09-04T15:06:31.957Z,100754.00
2022-09-04T15:09:19.759Z,100751.00
2022-09-04T15:12:08.860Z,100755.00
2022-09-04T15:14:44.045Z,100762.00
2022-09-04T15:17:24.359Z,100746.00
2022-09-04T15:19:58.900Z,100760.00
2022-09-04T15:22:40.727Z,100761.00
2022-09-04T15:29:58.856Z,100757.00
2022-09-04T15:43:48.868Z,100762.00
2022-09-04T15:47:09.992Z,100768.00
2022-09-04T15:49:48.946Z,100767.00
2022-09-04T15:52:38.047Z,100768.00
2022-09-04T15:55:12.542Z,100769.00
2022-09-04T15:57:58.953Z,100769.00
2022-09-04T16:00:48.892Z,100769.00
2022-09-04T16:03:57.099Z,100769.00
2022-09-04T16:06:49.700Z,100772.00
2022-09-04T16:09:42.233Z,100781.00
2022-09-04T16:12:38.585Z,100782.00
2022-09-04T16:15:12.336Z,100782.00
2022-09-04T16:17:45.471Z,100782.00
2022-09-04T16:20:22.911Z,100776.00
2022-09-04T16:22:58.427Z,100780.00
2022-09-04T16:25:30.183Z,100771.00
2022-09-04T16:28:04.816Z,100782.00
2022-09-04T16:30:38.483Z,100781.00
2022-09-04T16:33:24.959Z,100784.00
2022-09-04T16:36:00.417Z,100794.00
2022-09-04T16:38:42.014Z,100787.00
2022-09-04T16:41:16.756Z,100789.00
2022-09-04T16:44:13.820Z,100793.00
2022-09-04T16:46:53.504Z,100783.00
2022-09-04T16:49:27.136Z,100791.00
2022-09-04T16:52:05.764Z,100789.00
2022-09-04T16:54:49.138Z,100797.00
2022-09-04T16:57:21.609Z,100800.00
2022-09-04T16:59:55.425Z,100799.00
2022-09-04T17:02:35.736Z,100811.00
2022-09-04T17:05:18.634Z,100802.00
2022-09-04T17:07:53.276Z,100811.00
2022-09-04T17:10:41.668Z,100813.00
2022-09-04T17:13:17.887Z,100808.00
2022-09-04T17:15:57.992Z,100815.00
2022-09-04T17:18:29.517Z,100807.00
2022-09-04T17:25:20.987Z,100811.00
2022-09-04T17:28:55.987Z,100811.00
2022-09-04T17:29:17.345Z,100809.00
2022-09-04T17:29:48.804Z,100808.00
2022-09-04T17:35:27.856Z,100817.00
2022-09-04T17:40:34.729Z,100821.00
2022-09-04T17:40:34.874Z,100815.00
2022-09-04T17:41:36.383Z,100830.00
2022-09-04T17:44:26.515Z,100831.00
2022-09-04T17:47:06.704Z,100832.00
2022-09-04T17:49:36.342Z,100823.00
2022-09-04T17:52:09.125Z,100832.00
2022-09-04T17:54:49.417Z,100826.00
2022-09-04T17:57:26.374Z,100831.00
2022-09-04T18:00:04.479Z,100838.00
2022-09-04T18:02:39.863Z,100839.00
2022-09-04T18:05:19.803Z,100843.00
2022-09-04T18:08:07.220Z,100834.00
2022-09-04T18:10:51.954Z,100839.00
2022-09-04T18:13:37.767Z,100849.00
2022-09-04T18:16:26.976Z,100845.00
2022-09-04T18:18:59.570Z,100860.00
2022-09-04T18:21:32.454Z,100862.00
2022-09-04T18:24:06.287Z,100854.00
2022-09-04T18:26:42.705Z,100860.00
2022-09-04T18:32:13.488Z,100868.00
2022-09-04T18:37:06.871Z,100865.00
2022-09-04T18:37:17.020Z,100868.00
2022-09-04T18:38:35.267Z,100880.00
2022-09-04T18:44:08.703Z,100879.00
2022-09-04T18:50:23.868Z,100870.00
2022-09-04T18:50:33.642Z,100889.00
2022-09-04T18:50:50.874Z,100875.00
2022-09-04T18:53:09.512Z,100885.00
2022-09-04T18:55:46.864Z,100885.00
2022-09-04T18:58:41.220Z,100894.00
2022-09-04T19:01:26.785Z,100897.00
2022-09-04T19:03:58.546Z,100894.00
2022-09-04T19:06:35.846Z,100898.00
2022-09-04T19:09:13.133Z,100903.00
2022-09-04T19:11:48.250Z,100899.00
2022-09-04T19:14:21.791Z,100899.00
2022-09-04T19:16:53.813Z,100907.00
2022-09-04T19:19:31.579Z,100909.00
2022-09-04T19:22:09.626Z,100908.00
2022-09-04T19:24:48.782Z,100924.00
2022-09-04T19:27:28.409Z,100921.00
2022-09-04T19:30:18.291Z,100907.00
2022-09-04T19:33:04.221Z,100923.00
2022-09-04T19:35:38.318Z,100928.00
2022-09-04T19:42:14.207Z,100916.00
2022-09-04T19:46:01.739Z,100921.00
2022-09-04T19:46:11.957Z,100925.00
2022-09-04T19:47:46.268Z,100920.00
2022-09-04T19:53:18.670Z,100914.00
2022-09-04T19:53:42.143Z,100921.00
2022-09-04T19:56:21.077Z,100919.00
2022-09-04T19:58:54.339Z,100928.00
2022-09-04T20:01:28.122Z,100924.00
2022-09-04T20:04:00.781Z,100925.00
2022-09-04T20:06:34.786Z,100922.00
2022-09-04T20:09:17.523Z,100924.00
2022-09-04T20:11:52.304Z,100926.00
2022-09-04T20:14:27.080Z,100928.00
2022-09-04T20:17:09.858Z,100933.00
2022-09-04T20:19:43.491Z,100938.00
2022-09-04T20:22:26.367Z,100932.00
2022-09-04T20:25:08.741Z,100926.00
2022-09-04T20:27:43.132Z,100931.00
2022-09-04T20:30:18.238Z,100942.00
2022-09-04T20:32:56.282Z,100943.00
2022-09-04T20:35:33.781Z,100948.00
2022-09-04T20:38:12.305Z,100945.00
2022-09-04T20:40:45.335Z,100935.00
2022-09-04T20:43:26.621Z,100946.00
2022-09-04T20:52:44.210Z,100943.00
2022-09-04T20:52:50.657Z,100942.00
2022-09-04T20:52:53.855Z,100945.00
2022-09-04T20:55:15.808Z,100954.00
2022-09-04T21:03:11.155Z,100951.00
2022-09-04T21:03:11.196Z,100950.00
2022-09-04T21:04:04.223Z,100948.00
2022-09-04T21:06:41.825Z,100942.00
2022-09-04T21:09:34.330Z,100945.00
2022-09-04T21:12:15.933Z,100952.00
2022-09-04T21:14:52.937Z,100954.00
2022-09-04T21:18:04.938Z,100954.00
2022-09-04T21:21:00.269Z,100959.00
2022-09-04T21:24:17.916Z,100961.00
2022-09-04T21:27:34.229Z,100964.00
2022-09-04T21:30:12.763Z,100967.00
2022-09-04T21:32:58.654Z,100961.00
2022-09-04T21:36:26.154Z,100963.00
2022-09-04T21:39:27.611Z,100959.00
2022-09-04T21:42:27.007Z,100965.00
2022-09-04T21:45:14.044Z,100967.00
2022-09-04T21:48:23.449Z,100966.00
2022-09-04T21:51:01.670Z,100972.00
2022-09-04T21:53:55.741Z,100969.00
2022-09-04T22:02:32.493Z,100970.00
2022-09-04T22:02:43.810Z,100975.00
2022-09-04T22:03:12.009Z,100976.00
2022-09-04T22:05:49.686Z,100980.00
2022-09-04T22:13:29.758Z,100983.00
2022-09-04T22:13:34.041Z,100983.00
2022-09-04T22:14:30.587Z,100985.00
2022-09-04T22:17:24.484Z,100980.00
2022-09-04T22:20:20.549Z,100980.00
2022-09-04T22:23:24.818Z,100979.00
2022-09-04T22:26:23.036Z,100974.00
2022-09-04T22:29:39.533Z,100965.00
2022-09-04T22:32:46.986Z,100963.00
2022-09-04T22:35:51.251Z,100967.00
2022-09-04T22:38:34.777Z,100965.00
2022-09-04T22:41:35.962Z,100971.00
2022-09-04T22:44:18.439Z,100969.00
2022-09-04T22:47:22.550Z,100967.00
2022-09-04T22:50:09.504Z,100970.00
2022-09-04T22:53:04.617Z,100979.00
2022-09-04T22:56:14.489Z,100971.00
2022-09-04T22:59:27.062Z,100961.00
2022-09-04T23:03:06.440Z,100957.00
2022-09-04T23:05:52.849Z,100963.00
2022-09-04T23:13:47.606Z,100963.00
2022-09-04T23:14:02.003Z,100957.00
2022-09-04T23:15:09.060Z,100960.00
2022-09-04T23:18:31.293Z,100964.00
2022-09-04T23:26:49.214Z,100970.00
2022-09-04T23:26:54.019Z,100972.00
2022-09-04T23:27:33.179Z,100968.00
2022-09-04T23:30:12.242Z,100976.00
2022-09-04T23:33:27.348Z,100966.00
2022-09-04T23:36:04.182Z,100971.00
2022-09-04T23:38:58.907Z,100968.00
2022-09-04T23:41:52.995Z,100974.00
2022-09-04T23:44:57.745Z,100969.00
2022-09-04T23:47:59.010Z,100970.00
2022-09-04T23:50:35.922Z,100967.00
2022-09-04T23:53:20.603Z,100971.00
2022-09-04T23:56:15.056Z,100975.00
2022-09-04T23:59:21.248Z,100966.00
